sensor_id;sensor_type;location;lat;lon;timestamp;P1;durP1;ratioP1;P2;durP2;ratioP2
10717;SDS011;13513;42.700;23.124;2022-09-09T00:00:47;14.43;;;7.28;;
10717;SDS011;13513;42.700;23.124;2022-09-09T00:03:25;9.03;;;7.97;;
10717;SDS011;13513;42.700;23.124;2022-09-09T00:08:58;10.23;;;7.20;;
10717;SDS011;13513;42.700;23.124;2022-09-09T00:12:10;8.00;;;7.30;;
10717;SDS011;13513;42.700;23.124;2022-09-09T00:14:06;9.88;;;7.20;;
10717;SDS011;13513;42.700;23.124;2022-09-09T00:16:50;8.85;;;6.92;;
10717;SDS011;13513;42.700;23.124;2022-09-09T00:19:28;7.55;;;6.75;;
10717;SDS011;13513;42.700;23.124;2022-09-09T00:24:47;8.30;;;7.45;;
10717;SDS011;13513;42.700;23.124;2022-09-09T00:27:28;8.33;;;6.85;;
10717;SDS011;13513;42.700;23.124;2022-09-09T00:30:20;8.05;;;7.15;;
10717;SDS011;13513;42.700;23.124;2022-09-09T00:32:53;8.03;;;7.22;;
10717;SDS011;13513;42.700;23.124;2022-09-09T00:35:31;7.80;;;7.00;;
10717;SDS011;13513;42.700;23.124;2022-09-09T00:38:08;8.20;;;6.95;;
10717;SDS011;13513;42.700;23.124;2022-09-09T00:40:48;10.32;;;6.85;;
10717;SDS011;13513;42.700;23.124;2022-09-09T00:48:33;10.43;;;6.80;;
10717;SDS011;13513;42.700;23.124;2022-09-09T00:51:15;7.33;;;6.62;;
10717;SDS011;13513;42.700;23.124;2022-09-09T00:54:30;8.05;;;7.35;;
10717;SDS011;13513;42.700;23.124;2022-09-09T00:56:25;8.80;;;7.10;;
10717;SDS011;13513;42.700;23.124;2022-09-09T00:59:00;9.13;;;7.20;;
10717;SDS011;13513;42.700;23.124;2022-09-09T01:01:33;10.13;;;7.55;;
10717;SDS011;13513;42.700;23.124;2022-09-09T01:04:05;9.15;;;7.65;;
10717;SDS011;13513;42.700;23.124;2022-09-09T01:06:37;13.10;;;7.30;;
10717;SDS011;13513;42.700;23.124;2022-09-09T01:25:18;11.63;;;7.80;;
10717;SDS011;13513;42.700;23.124;2022-09-09T01:27:48;8.38;;;7.45;;
10717;SDS011;13513;42.700;23.124;2022-09-09T01:30:20;9.20;;;8.20;;
10717;SDS011;13513;42.700;23.124;2022-09-09T01:32:56;8.75;;;7.85;;
10717;SDS011;13513;42.700;23.124;2022-09-09T01:35:29;8.43;;;7.55;;
10717;SDS011;13513;42.700;23.124;2022-09-09T01:37:59;8.68;;;7.85;;
10717;SDS011;13513;42.700;23.124;2022-09-09T01:40:29;8.98;;;8.08;;
10717;SDS011;13513;42.700;23.124;2022-09-09T01:43:01;8.33;;;7.53;;
10717;SDS011;13513;42.700;23.124;2022-09-09T01:45:33;10.05;;;7.60;;
10717;SDS011;13513;42.700;23.124;2022-09-09T01:48:03;9.33;;;7.75;;
10717;SDS011;13513;42.700;23.124;2022-09-09T01:50:34;10.88;;;8.00;;
10717;SDS011;13513;42.700;23.124;2022-09-09T01:53:04;10.40;;;8.75;;
10717;SDS011;13513;42.700;23.124;2022-09-09T01:55:40;10.23;;;7.92;;
10717;SDS011;13513;42.700;23.124;2022-09-09T01:58:20;8.38;;;7.50;;
10717;SDS011;13513;42.700;23.124;2022-09-09T02:00:55;8.98;;;8.05;;
10717;SDS011;13513;42.700;23.124;2022-09-09T02:03:28;9.15;;;8.20;;
10717;SDS011;13513;42.700;23.124;2022-09-09T02:08:38;8.80;;;7.90;;
10717;SDS011;13513;42.700;23.124;2022-09-09T02:11:17;9.98;;;8.00;;
10717;SDS011;13513;42.700;23.124;2022-09-09T02:13:48;10.30;;;8.50;;
10717;SDS011;13513;42.700;23.124;2022-09-09T02:16:22;9.50;;;8.35;;
10717;SDS011;13513;42.700;23.124;2022-09-09T02:19:00;11.00;;;8.55;;
10717;SDS011;13513;42.700;23.124;2022-09-09T02:21:32;11.03;;;8.28;;
10717;SDS011;13513;42.700;23.124;2022-09-09T02:24:05;9.38;;;7.95;;
10717;SDS011;13513;42.700;23.124;2022-09-09T02:26:37;8.45;;;7.67;;
10717;SDS011;13513;42.700;23.124;2022-09-09T02:29:09;9.18;;;8.28;;
10717;SDS011;13513;42.700;23.124;2022-09-09T02:31:43;10.65;;;8.20;;
10717;SDS011;13513;42.700;23.124;2022-09-09T02:34:15;9.75;;;8.75;;
10717;SDS011;13513;42.700;23.124;2022-09-09T02:36:47;10.08;;;7.95;;
10717;SDS011;13513;42.700;23.124;2022-09-09T02:39:20;13.53;;;8.83;;
10717;SDS011;13513;42.700;23.124;2022-09-09T02:41:51;13.20;;;8.65;;
10717;SDS011;13513;42.700;23.124;2022-09-09T02:44:24;10.10;;;8.70;;
10717;SDS011;13513;42.700;23.124;2022-09-09T02:52:27;13.58;;;8.53;;
10717;SDS011;13513;42.700;23.124;2022-09-09T02:55:23;11.50;;;9.15;;
10717;SDS011;13513;42.700;23.124;2022-09-09T02:57:49;11.55;;;8.93;;
10717;SDS011;13513;42.700;23.124;2022-09-09T03:00:26;9.90;;;8.53;;
10717;SDS011;13513;42.700;23.124;2022-09-09T03:02:55;9.10;;;7.92;;
10717;SDS011;13513;42.700;23.124;2022-09-09T03:05:26;11.63;;;8.83;;
10717;SDS011;13513;42.700;23.124;2022-09-09T03:07:57;9.18;;;7.47;;
10717;SDS011;13513;42.700;23.124;2022-09-09T03:10:28;9.05;;;8.25;;
10717;SDS011;13513;42.700;23.124;2022-09-09T03:12:59;9.60;;;8.70;;
10717;SDS011;13513;42.700;23.124;2022-09-09T03:15:31;9.38;;;8.48;;
10717;SDS011;13513;42.700;23.124;2022-09-09T03:18:02;10.63;;;8.78;;
10717;SDS011;13513;42.700;23.124;2022-09-09T03:20:33;12.45;;;8.88;;
10717;SDS011;13513;42.700;23.124;2022-09-09T03:23:03;9.38;;;8.48;;
10717;SDS011;13513;42.700;23.124;2022-09-09T03:25:33;9.15;;;8.25;;
10717;SDS011;13513;42.700;23.124;2022-09-09T03:28:04;10.30;;;9.30;;
10717;SDS011;13513;42.700;23.124;2022-09-09T03:30:35;9.40;;;8.35;;
10717;SDS011;13513;42.700;23.124;2022-09-09T03:33:05;16.52;;;8.93;;
10717;SDS011;13513;42.700;23.124;2022-09-09T03:35:35;12.50;;;9.33;;
10717;SDS011;13513;42.700;23.124;2022-09-09T03:38:09;10.23;;;8.53;;
10717;SDS011;13513;42.700;23.124;2022-09-09T03:40:47;9.73;;;8.28;;
10717;SDS011;13513;42.700;23.124;2022-09-09T03:43:21;9.38;;;8.48;;
10717;SDS011;13513;42.700;23.124;2022-09-09T03:45:51;11.65;;;8.98;;
10717;SDS011;13513;42.700;23.124;2022-09-09T03:48:26;10.23;;;8.93;;
10717;SDS011;13513;42.700;23.124;2022-09-09T03:50:57;13.28;;;9.53;;
10717;SDS011;13513;42.700;23.124;2022-09-09T03:53:28;11.43;;;9.95;;
10717;SDS011;13513;42.700;23.124;2022-09-09T03:55:59;14.45;;;9.50;;
10717;SDS011;13513;42.700;23.124;2022-09-09T03:58:30;11.28;;;10.18;;
10717;SDS011;13513;42.700;23.124;2022-09-09T04:01:05;14.87;;;10.65;;
10717;SDS011;13513;42.700;23.124;2022-09-09T04:03:37;11.83;;;10.43;;
10717;SDS011;13513;42.700;23.124;2022-09-09T04:06:08;11.70;;;10.10;;
10717;SDS011;13513;42.700;23.124;2022-09-09T04:08:39;13.25;;;9.85;;
10717;SDS011;13513;42.700;23.124;2022-09-09T04:11:11;12.40;;;10.40;;
10717;SDS011;13513;42.700;23.124;2022-09-09T04:13:42;11.83;;;9.68;;
10717;SDS011;13513;42.700;23.124;2022-09-09T04:16:13;11.00;;;9.88;;
10717;SDS011;13513;42.700;23.124;2022-09-09T04:18:43;12.13;;;9.88;;
10717;SDS011;13513;42.700;23.124;2022-09-09T04:21:14;11.38;;;10.18;;
10717;SDS011;13513;42.700;23.124;2022-09-09T04:23:45;10.68;;;9.58;;
10717;SDS011;13513;42.700;23.124;2022-09-09T04:26:15;9.73;;;8.83;;
10717;SDS011;13513;42.700;23.124;2022-09-09T04:28:46;14.28;;;9.55;;
10717;SDS011;13513;42.700;23.124;2022-09-09T04:31:18;11.57;;;9.95;;
10717;SDS011;13513;42.700;23.124;2022-09-09T04:33:50;15.05;;;9.50;;
10717;SDS011;13513;42.700;23.124;2022-09-09T04:36:22;13.45;;;9.83;;
10717;SDS011;13513;42.700;23.124;2022-09-09T04:38:52;11.68;;;9.35;;
10717;SDS011;13513;42.700;23.124;2022-09-09T04:41:22;11.40;;;9.10;;
10717;SDS011;13513;42.700;23.124;2022-09-09T04:43:52;10.08;;;8.70;;
10717;SDS011;13513;42.700;23.124;2022-09-09T04:46:23;10.98;;;9.20;;
10717;SDS011;13513;42.700;23.124;2022-09-09T04:48:53;12.33;;;9.53;;
10717;SDS011;13513;42.700;23.124;2022-09-09T04:51:24;10.32;;;8.80;;
10717;SDS011;13513;42.700;23.124;2022-09-09T04:53:54;11.43;;;9.95;;
10717;SDS011;13513;42.700;23.124;2022-09-09T04:56:26;14.55;;;9.43;;
10717;SDS011;13513;42.700;23.124;2022-09-09T04:58:57;14.83;;;9.73;;
10717;SDS011;13513;42.700;23.124;2022-09-09T05:01:28;9.60;;;8.50;;
10717;SDS011;13513;42.700;23.124;2022-09-09T05:03:59;11.03;;;8.95;;
10717;SDS011;13513;42.700;23.124;2022-09-09T05:06:30;10.28;;;8.73;;
10717;SDS011;13513;42.700;23.124;2022-09-09T05:09:02;10.72;;;8.83;;
10717;SDS011;13513;42.700;23.124;2022-09-09T05:11:33;12.43;;;9.48;;
10717;SDS011;13513;42.700;23.124;2022-09-09T05:14:04;13.20;;;9.00;;
10717;SDS011;13513;42.700;23.124;2022-09-09T05:16:34;9.70;;;8.70;;
10717;SDS011;13513;42.700;23.124;2022-09-09T05:19:05;10.15;;;8.95;;
10717;SDS011;13513;42.700;23.124;2022-09-09T05:21:35;10.13;;;8.15;;
10717;SDS011;13513;42.700;23.124;2022-09-09T05:24:04;11.95;;;7.97;;
10717;SDS011;13513;42.700;23.124;2022-09-09T05:26:35;9.50;;;7.55;;
10717;SDS011;13513;42.700;23.124;2022-09-09T05:29:06;13.93;;;7.65;;
10717;SDS011;13513;42.700;23.124;2022-09-09T05:31:37;11.70;;;7.65;;
10717;SDS011;13513;42.700;23.124;2022-09-09T05:34:09;10.78;;;7.20;;
10717;SDS011;13513;42.700;23.124;2022-09-09T05:36:39;8.35;;;7.20;;
10717;SDS011;13513;42.700;23.124;2022-09-09T05:39:10;7.75;;;6.90;;
10717;SDS011;13513;42.700;23.124;2022-09-09T05:41:41;8.55;;;7.05;;
10717;SDS011;13513;42.700;23.124;2022-09-09T05:44:12;8.48;;;7.00;;
10717;SDS011;13513;42.700;23.124;2022-09-09T05:46:43;7.90;;;6.58;;
10717;SDS011;13513;42.700;23.124;2022-09-09T05:49:14;9.25;;;6.78;;
10717;SDS011;13513;42.700;23.124;2022-09-09T05:51:45;8.85;;;6.40;;
10717;SDS011;13513;42.700;23.124;2022-09-09T05:54:21;7.70;;;6.40;;
10717;SDS011;13513;42.700;23.124;2022-09-09T05:56:52;7.72;;;6.92;;
10717;SDS011;13513;42.700;23.124;2022-09-09T05:59:22;7.12;;;6.42;;
10717;SDS011;13513;42.700;23.124;2022-09-09T06:01:53;9.65;;;6.17;;
10717;SDS011;13513;42.700;23.124;2022-09-09T06:04:24;7.85;;;6.22;;
10717;SDS011;13513;42.700;23.124;2022-09-09T06:06:55;8.20;;;6.58;;
10717;SDS011;13513;42.700;23.124;2022-09-09T06:09:25;7.83;;;6.65;;
10717;SDS011;13513;42.700;23.124;2022-09-09T06:11:56;9.10;;;6.20;;
10717;SDS011;13513;42.700;23.124;2022-09-09T06:14:27;6.00;;;5.50;;
10717;SDS011;13513;42.700;23.124;2022-09-09T06:16:57;9.20;;;6.72;;
10717;SDS011;13513;42.700;23.124;2022-09-09T06:19:28;7.28;;;6.15;;
10717;SDS011;13513;42.700;23.124;2022-09-09T06:22:00;7.37;;;6.35;;
10717;SDS011;13513;42.700;23.124;2022-09-09T06:24:31;8.65;;;6.42;;
10717;SDS011;13513;42.700;23.124;2022-09-09T06:27:02;7.00;;;5.90;;
10717;SDS011;13513;42.700;23.124;2022-09-09T06:29:32;9.03;;;5.97;;
10717;SDS011;13513;42.700;23.124;2022-09-09T06:32:03;6.72;;;5.80;;
10717;SDS011;13513;42.700;23.124;2022-09-09T06:34:34;7.42;;;6.00;;
10717;SDS011;13513;42.700;23.124;2022-09-09T06:37:05;11.53;;;6.78;;
10717;SDS011;13513;42.700;23.124;2022-09-09T06:39:36;8.45;;;5.58;;
10717;SDS011;13513;42.700;23.124;2022-09-09T06:42:07;6.45;;;5.83;;
10717;SDS011;13513;42.700;23.124;2022-09-09T06:44:37;7.10;;;6.05;;
10717;SDS011;13513;42.700;23.124;2022-09-09T06:47:08;6.70;;;5.87;;
10717;SDS011;13513;42.700;23.124;2022-09-09T06:49:39;9.03;;;5.92;;
10717;SDS011;13513;42.700;23.124;2022-09-09T06:52:10;8.23;;;5.30;;
10717;SDS011;13513;42.700;23.124;2022-09-09T06:54:41;9.98;;;5.70;;
10717;SDS011;13513;42.700;23.124;2022-09-09T06:57:13;6.55;;;5.45;;
10717;SDS011;13513;42.700;23.124;2022-09-09T06:59:43;6.22;;;5.30;;
10717;SDS011;13513;42.700;23.124;2022-09-09T07:02:14;6.45;;;5.22;;
10717;SDS011;13513;42.700;23.124;2022-09-09T07:04:45;6.72;;;5.25;;
10717;SDS011;13513;42.700;23.124;2022-09-09T07:07:16;6.75;;;5.12;;
10717;SDS011;13513;42.700;23.124;2022-09-09T07:09:47;7.67;;;5.42;;
10717;SDS011;13513;42.700;23.124;2022-09-09T07:12:18;5.85;;;5.05;;
10717;SDS011;13513;42.700;23.124;2022-09-09T07:14:49;5.95;;;4.95;;
10717;SDS011;13513;42.700;23.124;2022-09-09T07:17:20;8.60;;;4.85;;
10717;SDS011;13513;42.700;23.124;2022-09-09T07:19:50;7.92;;;5.62;;
10717;SDS011;13513;42.700;23.124;2022-09-09T07:22:21;6.80;;;5.47;;
10717;SDS011;13513;42.700;23.124;2022-09-09T07:24:52;7.35;;;5.33;;
10717;SDS011;13513;42.700;23.124;2022-09-09T07:27:23;6.72;;;5.20;;
10717;SDS011;13513;42.700;23.124;2022-09-09T07:29:54;10.58;;;5.25;;
10717;SDS011;13513;42.700;23.124;2022-09-09T07:32:25;6.47;;;4.92;;
10717;SDS011;13513;42.700;23.124;2022-09-09T07:34:56;6.97;;;5.28;;
10717;SDS011;13513;42.700;23.124;2022-09-09T07:37:27;11.30;;;5.45;;
10717;SDS011;13513;42.700;23.124;2022-09-09T07:39:58;6.00;;;5.37;;
10717;SDS011;13513;42.700;23.124;2022-09-09T07:42:29;10.40;;;5.60;;
10717;SDS011;13513;42.700;23.124;2022-09-09T07:44:59;9.18;;;5.40;;
10717;SDS011;13513;42.700;23.124;2022-09-09T07:47:30;8.58;;;5.08;;
10717;SDS011;13513;42.700;23.124;2022-09-09T07:50:01;9.08;;;5.62;;
10717;SDS011;13513;42.700;23.124;2022-09-09T07:52:33;9.13;;;5.50;;
10717;SDS011;13513;42.700;23.124;2022-09-09T07:55:04;7.35;;;5.33;;
10717;SDS011;13513;42.700;23.124;2022-09-09T07:57:34;7.00;;;4.87;;
10717;SDS011;13513;42.700;23.124;2022-09-09T08:00:05;9.60;;;5.20;;
10717;SDS011;13513;42.700;23.124;2022-09-09T08:02:36;7.42;;;5.55;;
10717;SDS011;13513;42.700;23.124;2022-09-09T08:05:07;8.55;;;5.50;;
10717;SDS011;13513;42.700;23.124;2022-09-09T08:07:38;8.63;;;5.55;;
10717;SDS011;13513;42.700;23.124;2022-09-09T08:10:08;13.62;;;5.85;;
10717;SDS011;13513;42.700;23.124;2022-09-09T08:12:39;7.42;;;5.75;;
10717;SDS011;13513;42.700;23.124;2022-09-09T08:15:10;8.73;;;5.42;;
10717;SDS011;13513;42.700;23.124;2022-09-09T08:17:42;6.60;;;5.55;;
10717;SDS011;13513;42.700;23.124;2022-09-09T08:20:15;8.80;;;5.55;;
10717;SDS011;13513;42.700;23.124;2022-09-09T08:22:45;6.53;;;5.30;;
10717;SDS011;13513;42.700;23.124;2022-09-09T08:25:16;13.28;;;5.75;;
10717;SDS011;13513;42.700;23.124;2022-09-09T08:27:47;8.45;;;4.80;;
10717;SDS011;13513;42.700;23.124;2022-09-09T08:30:18;12.53;;;5.42;;
10717;SDS011;13513;42.700;23.124;2022-09-09T08:32:48;6.92;;;5.60;;
10717;SDS011;13513;42.700;23.124;2022-09-09T08:35:19;11.00;;;5.80;;
10717;SDS011;13513;42.700;23.124;2022-09-09T08:37:53;9.45;;;5.75;;
10717;SDS011;13513;42.700;23.124;2022-09-09T08:40:26;8.05;;;5.40;;
10717;SDS011;13513;42.700;23.124;2022-09-09T08:42:56;7.05;;;5.17;;
10717;SDS011;13513;42.700;23.124;2022-09-09T08:45:34;11.80;;;5.42;;
10717;SDS011;13513;42.700;23.124;2022-09-09T08:50:54;12.60;;;6.60;;
10717;SDS011;13513;42.700;23.124;2022-09-09T08:53:30;8.40;;;5.58;;
10717;SDS011;13513;42.700;23.124;2022-09-09T08:56:01;6.95;;;5.40;;
10717;SDS011;13513;42.700;23.124;2022-09-09T08:58:33;12.40;;;5.78;;
10717;SDS011;13513;42.700;23.124;2022-09-09T09:07:07;12.28;;;8.58;;
10717;SDS011;13513;42.700;23.124;2022-09-09T09:12:45;7.67;;;5.40;;
10717;SDS011;13513;42.700;23.124;2022-09-09T09:15:21;8.63;;;6.00;;
10717;SDS011;13513;42.700;23.124;2022-09-09T09:17:53;12.68;;;6.28;;
10717;SDS011;13513;42.700;23.124;2022-09-09T09:23:24;9.60;;;5.28;;
10717;SDS011;13513;42.700;23.124;2022-09-09T09:25:56;9.53;;;5.72;;
10717;SDS011;13513;42.700;23.124;2022-09-09T09:28:27;9.05;;;5.53;;
10717;SDS011;13513;42.700;23.124;2022-09-09T09:31:05;9.60;;;6.25;;
10717;SDS011;13513;42.700;23.124;2022-09-09T09:33:41;8.60;;;6.53;;
10717;SDS011;13513;42.700;23.124;2022-09-09T09:36:24;7.45;;;5.87;;
10717;SDS011;13513;42.700;23.124;2022-09-09T09:38:56;9.15;;;6.15;;
10717;SDS011;13513;42.700;23.124;2022-09-09T09:47:04;11.03;;;8.15;;
10717;SDS011;13513;42.700;23.124;2022-09-09T09:49:51;12.18;;;10.48;;
10717;SDS011;13513;42.700;23.124;2022-09-09T09:52:29;16.12;;;13.58;;
10717;SDS011;13513;42.700;23.124;2022-09-09T09:55:02;12.03;;;6.20;;
10717;SDS011;13513;42.700;23.124;2022-09-09T09:57:32;10.13;;;6.83;;
10717;SDS011;13513;42.700;23.124;2022-09-09T10:00:14;9.73;;;6.55;;
10717;SDS011;13513;42.700;23.124;2022-09-09T10:02:45;10.55;;;6.97;;
10717;SDS011;13513;42.700;23.124;2022-09-09T10:05:21;9.25;;;7.53;;
10717;SDS011;13513;42.700;23.124;2022-09-09T10:08:02;12.07;;;7.22;;
10717;SDS011;13513;42.700;23.124;2022-09-09T10:19:21;15.68;;;7.10;;
10717;SDS011;13513;42.700;23.124;2022-09-09T10:27:47;13.65;;;6.60;;
10717;SDS011;13513;42.700;23.124;2022-09-09T10:38:41;10.45;;;6.47;;
10717;SDS011;13513;42.700;23.124;2022-09-09T10:41:18;11.00;;;6.87;;
10717;SDS011;13513;42.700;23.124;2022-09-09T10:44:51;12.90;;;6.75;;
10717;SDS011;13513;42.700;23.124;2022-09-09T10:46:46;11.83;;;7.05;;
10717;SDS011;13513;42.700;23.124;2022-09-09T10:49:28;10.53;;;6.62;;
10717;SDS011;13513;42.700;23.124;2022-09-09T10:55:00;13.62;;;6.10;;
10717;SDS011;13513;42.700;23.124;2022-09-09T10:57:43;10.98;;;5.65;;
10717;SDS011;13513;42.700;23.124;2022-09-09T11:02:58;11.03;;;6.95;;
10717;SDS011;13513;42.700;23.124;2022-09-09T11:05:35;9.60;;;7.05;;
10717;SDS011;13513;42.700;23.124;2022-09-09T11:08:17;11.05;;;6.53;;
10717;SDS011;13513;42.700;23.124;2022-09-09T11:16:38;9.45;;;6.25;;
10717;SDS011;13513;42.700;23.124;2022-09-09T11:21:59;9.20;;;5.97;;
10717;SDS011;13513;42.700;23.124;2022-09-09T11:24:37;6.78;;;5.65;;
10717;SDS011;13513;42.700;23.124;2022-09-09T11:27:21;12.78;;;5.70;;
10717;SDS011;13513;42.700;23.124;2022-09-09T11:30:05;9.30;;;5.30;;
10717;SDS011;13513;42.700;23.124;2022-09-09T11:40:57;10.43;;;5.67;;
10717;SDS011;13513;42.700;23.124;2022-09-09T11:43:31;9.65;;;5.87;;
10717;SDS011;13513;42.700;23.124;2022-09-09T11:46:02;8.08;;;5.47;;
10717;SDS011;13513;42.700;23.124;2022-09-09T11:48:40;9.93;;;5.72;;
10717;SDS011;13513;42.700;23.124;2022-09-09T11:57:01;7.70;;;6.10;;
10717;SDS011;13513;42.700;23.124;2022-09-09T11:59:33;7.58;;;6.03;;
10717;SDS011;13513;42.700;23.124;2022-09-09T12:02:14;8.55;;;5.70;;
10717;SDS011;13513;42.700;23.124;2022-09-09T12:04:59;6.22;;;5.40;;
10717;SDS011;13513;42.700;23.124;2022-09-09T12:07:35;7.50;;;5.92;;
10717;SDS011;13513;42.700;23.124;2022-09-09T12:10:19;11.85;;;6.70;;
10717;SDS011;13513;42.700;23.124;2022-09-09T12:12:39;7.95;;;5.92;;
10717;SDS011;13513;42.700;23.124;2022-09-09T12:17:44;7.28;;;5.90;;
10717;SDS011;13513;42.700;23.124;2022-09-09T12:31:15;9.88;;;5.97;;
10717;SDS011;13513;42.700;23.124;2022-09-09T12:33:52;11.50;;;5.97;;
10717;SDS011;13513;42.700;23.124;2022-09-09T12:36:24;7.50;;;5.60;;
10717;SDS011;13513;42.700;23.124;2022-09-09T12:38:55;8.00;;;5.85;;
10717;SDS011;13513;42.700;23.124;2022-09-09T12:41:30;6.78;;;6.05;;
10717;SDS011;13513;42.700;23.124;2022-09-09T12:44:08;9.68;;;5.72;;
10717;SDS011;13513;42.700;23.124;2022-09-09T12:46:39;7.92;;;5.45;;
10717;SDS011;13513;42.700;23.124;2022-09-09T12:49:26;9.15;;;5.50;;
10717;SDS011;13513;42.700;23.124;2022-09-09T12:52:03;12.18;;;6.00;;
10717;SDS011;13513;42.700;23.124;2022-09-09T12:54:45;8.88;;;6.25;;
10717;SDS011;13513;42.700;23.124;2022-09-09T12:57:17;10.58;;;5.70;;
10717;SDS011;13513;42.700;23.124;2022-09-09T12:59:47;13.62;;;6.03;;
10717;SDS011;13513;42.700;23.124;2022-09-09T13:02:18;6.78;;;5.25;;
10717;SDS011;13513;42.700;23.124;2022-09-09T13:04:53;12.30;;;5.92;;
10717;SDS011;13513;42.700;23.124;2022-09-09T13:07:26;11.33;;;6.30;;
10717;SDS011;13513;42.700;23.124;2022-09-09T13:09:57;9.18;;;5.83;;
10717;SDS011;13513;42.700;23.124;2022-09-09T13:12:28;16.55;;;9.20;;
10717;SDS011;13513;42.700;23.124;2022-09-09T13:14:59;10.00;;;5.72;;
10717;SDS011;13513;42.700;23.124;2022-09-09T13:17:30;11.03;;;8.00;;
10717;SDS011;13513;42.700;23.124;2022-09-09T13:20:01;11.25;;;5.78;;
10717;SDS011;13513;42.700;23.124;2022-09-09T13:22:38;8.88;;;5.78;;
10717;SDS011;13513;42.700;23.124;2022-09-09T13:25:17;10.38;;;6.10;;
10717;SDS011;13513;42.700;23.124;2022-09-09T13:30:36;9.78;;;5.60;;
10717;SDS011;13513;42.700;23.124;2022-09-09T13:38:27;11.95;;;5.90;;
10717;SDS011;13513;42.700;23.124;2022-09-09T13:43:42;15.13;;;7.12;;
10717;SDS011;13513;42.700;23.124;2022-09-09T13:46:47;11.90;;;7.90;;
10717;SDS011;13513;42.700;23.124;2022-09-09T13:49:02;10.08;;;5.58;;
10717;SDS011;13513;42.700;23.124;2022-09-09T13:51:41;10.80;;;5.70;;
10717;SDS011;13513;42.700;23.124;2022-09-09T13:54:17;8.50;;;4.75;;
10717;SDS011;13513;42.700;23.124;2022-09-09T13:56:48;10.53;;;4.78;;
10717;SDS011;13513;42.700;23.124;2022-09-09T13:59:20;9.83;;;4.97;;
10717;SDS011;13513;42.700;23.124;2022-09-09T14:01:50;8.28;;;4.50;;
10717;SDS011;13513;42.700;23.124;2022-09-09T14:04:21;6.33;;;4.60;;
10717;SDS011;13513;42.700;23.124;2022-09-09T14:06:54;7.65;;;4.75;;
10717;SDS011;13513;42.700;23.124;2022-09-09T14:09:24;10.85;;;4.40;;
10717;SDS011;13513;42.700;23.124;2022-09-09T14:11:55;6.92;;;4.65;;
10717;SDS011;13513;42.700;23.124;2022-09-09T14:14:26;8.43;;;4.83;;
10717;SDS011;13513;42.700;23.124;2022-09-09T14:16:58;10.43;;;5.10;;
10717;SDS011;13513;42.700;23.124;2022-09-09T14:19:29;8.50;;;5.15;;
10717;SDS011;13513;42.700;23.124;2022-09-09T14:22:00;12.82;;;5.17;;
10717;SDS011;13513;42.700;23.124;2022-09-09T14:24:30;11.45;;;5.35;;
10717;SDS011;13513;42.700;23.124;2022-09-09T14:27:00;10.65;;;5.35;;
10717;SDS011;13513;42.700;23.124;2022-09-09T14:29:30;7.58;;;5.47;;
10717;SDS011;13513;42.700;23.124;2022-09-09T14:32:01;6.58;;;4.97;;
10717;SDS011;13513;42.700;23.124;2022-09-09T14:34:31;11.75;;;6.03;;
10717;SDS011;13513;42.700;23.124;2022-09-09T14:37:02;8.98;;;5.30;;
10717;SDS011;13513;42.700;23.124;2022-09-09T14:39:33;8.43;;;5.60;;
10717;SDS011;13513;42.700;23.124;2022-09-09T14:42:04;8.78;;;5.70;;
10717;SDS011;13513;42.700;23.124;2022-09-09T14:44:35;8.70;;;5.60;;
10717;SDS011;13513;42.700;23.124;2022-09-09T14:47:07;5.90;;;5.30;;
10717;SDS011;13513;42.700;23.124;2022-09-09T14:49:38;7.22;;;4.92;;
10717;SDS011;13513;42.700;23.124;2022-09-09T14:52:09;8.98;;;5.60;;
10717;SDS011;13513;42.700;23.124;2022-09-09T14:54:40;8.28;;;5.20;;
10717;SDS011;13513;42.700;23.124;2022-09-09T14:57:11;9.35;;;5.65;;
10717;SDS011;13513;42.700;23.124;2022-09-09T14:59:42;9.13;;;5.28;;
10717;SDS011;13513;42.700;23.124;2022-09-09T15:02:13;12.82;;;4.90;;
10717;SDS011;13513;42.700;23.124;2022-09-09T15:04:44;7.25;;;5.53;;
10717;SDS011;13513;42.700;23.124;2022-09-09T15:07:15;11.55;;;6.20;;
10717;SDS011;13513;42.700;23.124;2022-09-09T15:09:46;11.35;;;6.03;;
10717;SDS011;13513;42.700;23.124;2022-09-09T15:12:18;9.10;;;5.70;;
10717;SDS011;13513;42.700;23.124;2022-09-09T15:14:48;8.43;;;5.90;;
10717;SDS011;13513;42.700;23.124;2022-09-09T15:17:19;8.20;;;5.60;;
10717;SDS011;13513;42.700;23.124;2022-09-09T15:19:51;10.82;;;5.90;;
10717;SDS011;13513;42.700;23.124;2022-09-09T15:22:20;8.75;;;5.37;;
10717;SDS011;13513;42.700;23.124;2022-09-09T15:24:51;10.72;;;5.60;;
10717;SDS011;13513;42.700;23.124;2022-09-09T15:27:22;6.50;;;5.25;;
10717;SDS011;13513;42.700;23.124;2022-09-09T15:29:53;13.65;;;5.40;;
10717;SDS011;13513;42.700;23.124;2022-09-09T15:32:24;7.97;;;5.22;;
10717;SDS011;13513;42.700;23.124;2022-09-09T15:34:55;6.65;;;5.97;;
10717;SDS011;13513;42.700;23.124;2022-09-09T15:37:26;6.67;;;4.95;;
10717;SDS011;13513;42.700;23.124;2022-09-09T15:39:57;12.03;;;5.75;;
10717;SDS011;13513;42.700;23.124;2022-09-09T15:42:28;8.50;;;5.30;;
10717;SDS011;13513;42.700;23.124;2022-09-09T15:44:59;7.55;;;5.15;;
10717;SDS011;13513;42.700;23.124;2022-09-09T15:47:30;14.10;;;5.62;;
10717;SDS011;13513;42.700;23.124;2022-09-09T15:50:01;9.15;;;5.37;;
10717;SDS011;13513;42.700;23.124;2022-09-09T15:52:32;7.40;;;5.28;;
10717;SDS011;13513;42.700;23.124;2022-09-09T15:55:02;9.33;;;5.20;;
10717;SDS011;13513;42.700;23.124;2022-09-09T15:57:34;8.18;;;5.30;;
10717;SDS011;13513;42.700;23.124;2022-09-09T16:00:05;8.40;;;5.50;;
10717;SDS011;13513;42.700;23.124;2022-09-09T16:02:36;12.37;;;5.87;;
10717;SDS011;13513;42.700;23.124;2022-09-09T16:05:06;13.22;;;5.65;;
10717;SDS011;13513;42.700;23.124;2022-09-09T16:07:37;6.65;;;5.30;;
10717;SDS011;13513;42.700;23.124;2022-09-09T16:10:08;6.87;;;5.50;;
10717;SDS011;13513;42.700;23.124;2022-09-09T16:12:38;10.38;;;5.70;;
10717;SDS011;13513;42.700;23.124;2022-09-09T16:15:09;9.75;;;5.50;;
10717;SDS011;13513;42.700;23.124;2022-09-09T16:17:40;9.45;;;5.60;;
10717;SDS011;13513;42.700;23.124;2022-09-09T16:20:11;9.20;;;5.15;;
10717;SDS011;13513;42.700;23.124;2022-09-09T16:22:42;7.75;;;6.30;;
10717;SDS011;13513;42.700;23.124;2022-09-09T16:25:12;7.95;;;5.92;;
10717;SDS011;13513;42.700;23.124;2022-09-09T16:27:43;9.05;;;5.80;;
10717;SDS011;13513;42.700;23.124;2022-09-09T16:30:14;12.68;;;5.67;;
10717;SDS011;13513;42.700;23.124;2022-09-09T16:32:45;9.23;;;6.20;;
10717;SDS011;13513;42.700;23.124;2022-09-09T16:35:16;11.30;;;6.35;;
10717;SDS011;13513;42.700;23.124;2022-09-09T16:37:47;9.10;;;6.28;;
10717;SDS011;13513;42.700;23.124;2022-09-09T16:40:18;13.85;;;5.97;;
10717;SDS011;13513;42.700;23.124;2022-09-09T16:42:48;12.05;;;6.50;;
10717;SDS011;13513;42.700;23.124;2022-09-09T16:45:19;13.30;;;6.25;;
10717;SDS011;13513;42.700;23.124;2022-09-09T16:47:50;8.95;;;7.22;;
10717;SDS011;13513;42.700;23.124;2022-09-09T16:50:21;12.95;;;7.00;;
10717;SDS011;13513;42.700;23.124;2022-09-09T16:52:52;11.43;;;6.72;;
10717;SDS011;13513;42.700;23.124;2022-09-09T16:55:23;12.68;;;6.85;;
10717;SDS011;13513;42.700;23.124;2022-09-09T16:57:54;15.40;;;7.50;;
10717;SDS011;13513;42.700;23.124;2022-09-09T17:00:25;11.70;;;6.70;;
10717;SDS011;13513;42.700;23.124;2022-09-09T17:02:56;11.48;;;6.83;;
10717;SDS011;13513;42.700;23.124;2022-09-09T17:05:27;13.60;;;7.15;;
10717;SDS011;13513;42.700;23.124;2022-09-09T17:07:58;16.87;;;6.87;;
10717;SDS011;13513;42.700;23.124;2022-09-09T17:10:29;13.38;;;7.03;;